createdAt,value
2023-04-14T00:00:54.708Z,28.34
2023-04-14T00:01:54.704Z,28.29
2023-04-14T00:02:54.821Z,28.31
2023-04-14T00:03:54.850Z,28.32
2023-04-14T00:04:55.263Z,28.29
2023-04-14T00:05:54.752Z,28.32
2023-04-14T00:06:54.753Z,28.29
2023-04-14T00:07:54.773Z,28.30
2023-04-14T00:08:54.774Z,28.33
2023-04-14T00:09:54.772Z,28.33
2023-04-14T00:10:54.779Z,28.31
2023-04-14T00:11:54.820Z,28.33
2023-04-14T00:12:54.792Z,28.30
2023-04-14T00:13:54.848Z,28.36
2023-04-14T00:14:54.852Z,28.33
2023-04-14T00:15:54.855Z,28.32
2023-04-14T00:16:54.942Z,28.32
2023-04-14T00:17:54.893Z,28.32
2023-04-14T00:18:54.875Z,28.36
2023-04-14T00:19:54.881Z,28.32
2023-04-14T00:20:54.878Z,28.32
2023-04-14T00:21:54.891Z,28.36
2023-04-14T00:22:54.899Z,28.39
2023-04-14T00:23:54.969Z,28.35
2023-04-14T00:24:54.993Z,28.35
2023-04-14T00:25:54.975Z,28.33
2023-04-14T00:26:54.991Z,28.33
2023-04-14T00:27:55.011Z,28.35
2023-04-14T00:28:55.009Z,28.35
2023-04-14T00:29:55.009Z,28.34
2023-04-14T00:30:55.041Z,28.34
2023-04-14T00:31:55.222Z,28.39
2023-04-14T00:32:55.065Z,28.34
2023-04-14T00:33:55.092Z,28.37
2023-04-14T00:34:55.009Z,28.37
2023-04-14T00:35:55.052Z,28.39
2023-04-14T00:36:55.024Z,28.40
2023-04-14T00:37:55.069Z,28.37
2023-04-14T00:38:55.076Z,28.39
2023-04-14T00:39:55.132Z,28.36
2023-04-14T00:40:55.133Z,28.36
2023-04-14T00:41:55.227Z,28.34
2023-04-14T00:42:55.100Z,28.39
2023-04-14T00:43:55.146Z,28.45
2023-04-14T00:44:55.160Z,28.45
2023-04-14T00:45:55.174Z,28.39
2023-04-14T00:46:55.236Z,28.40
2023-04-14T00:47:55.210Z,28.40
2023-04-14T00:48:55.244Z,28.44
2023-04-14T00:49:55.243Z,28.41
2023-04-14T00:50:55.256Z,28.40
2023-04-14T00:51:55.272Z,28.39
2023-04-14T00:52:55.267Z,28.43
2023-04-14T00:53:55.282Z,28.41
2023-04-14T00:54:55.322Z,28.47
2023-04-14T00:55:55.301Z,28.43
2023-04-14T00:56:55.292Z,28.44
2023-04-14T00:57:55.305Z,28.40
2023-04-14T00:58:55.319Z,28.43
2023-04-14T00:59:55.343Z,28.43
2023-04-14T01:00:55.384Z,28.49
2023-04-14T01:01:55.475Z,28.47
2023-04-14T01:02:55.489Z,28.40
2023-04-14T01:03:55.508Z,28.43
2023-04-14T01:04:55.459Z,28.43
2023-04-14T01:05:55.406Z,28.44
2023-04-14T01:06:55.404Z,28.44
2023-04-14T01:07:55.418Z,28.47
2023-04-14T01:08:55.433Z,28.38
2023-04-14T01:09:55.413Z,28.49
2023-04-14T01:10:55.433Z,28.47
2023-04-14T01:11:55.435Z,28.45
2023-04-14T01:12:55.440Z,28.44
2023-04-14T01:13:56.237Z,28.47
2023-04-14T01:14:55.521Z,28.45
2023-04-14T01:15:55.608Z,28.45
2023-04-14T01:16:55.493Z,28.47
2023-04-14T01:17:55.648Z,28.49
2023-04-14T01:18:55.547Z,28.50
2023-04-14T01:19:55.546Z,28.47
2023-04-14T01:20:55.563Z,28.45
2023-04-14T01:21:55.535Z,28.48
2023-04-14T01:22:55.568Z,28.50
2023-04-14T01:23:55.588Z,28.45
2023-04-14T01:24:55.587Z,28.50
2023-04-14T01:25:55.637Z,28.45
2023-04-14T01:26:55.628Z,28.52
2023-04-14T01:27:55.657Z,28.45
2023-04-14T01:28:55.647Z,28.48
2023-04-14T01:29:55.652Z,28.48
2023-04-14T01:30:55.686Z,28.47
2023-04-14T01:31:55.791Z,28.52
2023-04-14T01:32:55.722Z,28.50
2023-04-14T01:33:55.759Z,28.51
2023-04-14T01:34:55.689Z,28.50
2023-04-14T01:35:55.711Z,28.51
2023-04-14T01:36:55.786Z,28.50
2023-04-14T01:37:55.792Z,28.50
2023-04-14T01:38:55.796Z,28.50
2023-04-14T01:39:55.797Z,28.51
2023-04-14T01:40:55.810Z,28.52
2023-04-14T01:41:55.853Z,28.48
2023-04-14T01:42:55.845Z,28.51
2023-04-14T01:43:55.866Z,28.51
2023-04-14T01:44:55.872Z,28.51
2023-04-14T01:45:55.885Z,28.49
2023-04-14T01:46:55.897Z,28.49
2023-04-14T01:47:55.951Z,28.51
2023-04-14T01:48:55.941Z,28.52
2023-04-14T01:49:55.968Z,28.51
2023-04-14T01:50:55.983Z,28.54
2023-04-14T01:51:55.985Z,28.55
2023-04-14T01:52:56.087Z,28.52
2023-04-14T01:53:56.039Z,28.50
2023-04-14T01:54:56.036Z,28.51
2023-04-14T01:55:56.058Z,28.54
2023-04-14T01:56:56.065Z,28.52
2023-04-14T01:57:56.126Z,28.54
2023-04-14T01:58:56.157Z,28.51
2023-04-14T01:59:56.137Z,28.49
2023-04-14T02:00:56.178Z,28.54
2023-04-14T02:01:56.204Z,28.51
2023-04-14T02:02:56.334Z,28.58
2023-04-14T02:03:56.282Z,28.58
2023-04-14T02:04:56.298Z,28.54
2023-04-14T02:05:56.287Z,28.56
2023-04-14T02:06:56.290Z,28.55
2023-04-14T02:07:56.261Z,28.53
2023-04-14T02:08:56.312Z,28.53
2023-04-14T02:09:56.334Z,28.52
2023-04-14T02:10:56.365Z,28.53
2023-04-14T02:11:56.348Z,28.55
2023-04-14T02:12:56.368Z,28.56
2023-04-14T02:13:56.432Z,28.59
2023-04-14T02:14:56.448Z,28.51
2023-04-14T02:15:56.445Z,28.58
2023-04-14T02:16:56.545Z,28.61
2023-04-14T02:17:56.543Z,28.56
2023-04-14T02:18:56.518Z,28.58
2023-04-14T02:19:56.525Z,28.56
2023-04-14T02:20:56.596Z,28.56
2023-04-14T02:21:56.736Z,28.55
2023-04-14T02:22:56.597Z,28.59
2023-04-14T02:23:56.668Z,28.54
2023-04-14T02:24:56.628Z,28.56
2023-04-14T02:25:56.748Z,28.58
2023-04-14T02:26:56.650Z,28.53
2023-04-14T02:27:56.675Z,28.66
2023-04-14T02:28:56.784Z,28.53
2023-04-14T02:29:56.784Z,28.56
2023-04-14T02:30:56.888Z,28.59
2023-04-14T02:31:56.762Z,28.60
2023-04-14T02:32:56.841Z,28.55
2023-04-14T02:33:56.829Z,28.55
2023-04-14T02:34:56.818Z,28.58
2023-04-14T02:35:56.828Z,28.58
2023-04-14T02:36:56.905Z,28.61
2023-04-14T02:37:57.010Z,28.62
2023-04-14T02:38:56.923Z,28.63
2023-04-14T02:39:56.957Z,28.62
2023-04-14T02:40:56.959Z,28.58
2023-04-14T02:41:56.976Z,28.59
2023-04-14T02:42:56.974Z,28.59
2023-04-14T02:43:57.054Z,28.63
2023-04-14T02:44:57.051Z,28.59
2023-04-14T02:45:57.118Z,28.58
2023-04-14T02:46:57.090Z,28.58
2023-04-14T02:47:57.164Z,28.62
2023-04-14T02:48:57.151Z,28.62
2023-04-14T02:49:57.148Z,28.63
2023-04-14T02:50:57.153Z,28.59
2023-04-14T02:51:57.244Z,28.59
2023-04-14T02:52:57.211Z,28.58
2023-04-14T02:53:57.261Z,28.60
2023-04-14T02:54:57.254Z,28.60
2023-04-14T02:55:57.349Z,28.61
2023-04-14T02:56:57.281Z,28.62
2023-04-14T02:57:57.273Z,28.62
2023-04-14T02:58:57.371Z,28.60
2023-04-14T02:59:57.375Z,28.64
2023-04-14T03:00:57.374Z,28.63
2023-04-14T03:01:57.512Z,28.63
2023-04-14T03:02:57.550Z,28.59
2023-04-14T03:03:57.571Z,28.66
2023-04-14T03:04:57.531Z,28.63
2023-04-14T03:05:57.508Z,28.60
2023-04-14T03:06:57.553Z,28.64
2023-04-14T03:07:57.583Z,28.66
2023-04-14T03:08:57.644Z,28.60
2023-04-14T03:09:57.664Z,28.62
2023-04-14T03:10:57.644Z,28.63
2023-04-14T03:11:57.653Z,28.64
2023-04-14T03:12:57.692Z,28.64
2023-04-14T03:13:57.891Z,28.62
2023-04-14T03:14:57.767Z,28.65
2023-04-14T03:15:57.795Z,28.60
2023-04-14T03:16:57.934Z,28.65
2023-04-14T03:17:57.850Z,28.60
2023-04-14T03:18:57.887Z,28.60
2023-04-14T03:19:57.877Z,28.69
2023-04-14T03:20:58.062Z,28.66
2023-04-14T03:21:57.969Z,28.67
2023-04-14T03:22:57.956Z,28.64
2023-04-14T03:23:57.991Z,28.64
2023-04-14T03:24:58.088Z,28.66
2023-04-14T03:25:58.086Z,28.67
2023-04-14T03:26:58.110Z,28.63
2023-04-14T03:27:58.081Z,28.64
2023-04-14T03:28:58.169Z,28.67
2023-04-14T03:29:58.184Z,28.60
2023-04-14T03:30:58.254Z,28.69
2023-04-14T03:31:58.198Z,28.66
2023-04-14T03:32:58.296Z,28.66
2023-04-14T03:33:58.249Z,28.68
2023-04-14T03:34:58.253Z,28.67
2023-04-14T03:35:59.270Z,28.66
2023-04-14T03:36:58.335Z,28.67
2023-04-14T03:37:58.380Z,28.66
2023-04-14T03:38:58.725Z,28.69
2023-04-14T03:39:58.402Z,28.67
2023-04-14T03:40:58.459Z,28.64
2023-04-14T03:41:58.434Z,28.72
2023-04-14T03:42:58.503Z,28.68
2023-04-14T03:43:58.505Z,28.72
2023-04-14T03:44:58.549Z,28.67
2023-04-14T03:45:58.740Z,28.68
2023-04-14T03:46:58.702Z,28.68
2023-04-14T03:47:58.659Z,28.71
2023-04-14T03:48:58.810Z,28.67
2023-04-14T03:49:58.732Z,28.71
2023-04-14T03:50:58.891Z,28.70
2023-04-14T03:51:58.757Z,28.67
2023-04-14T03:52:58.785Z,28.66
2023-04-14T03:53:58.826Z,28.68
2023-04-14T03:54:58.837Z,28.70
2023-04-14T03:55:58.891Z,28.71
2023-04-14T03:56:58.880Z,28.68
2023-04-14T03:57:58.935Z,28.74
2023-04-14T03:58:59.259Z,28.71
2023-04-14T03:59:59.042Z,28.71
2023-04-14T04:00:59.035Z,28.70
2023-04-14T04:01:59.223Z,28.68
2023-04-14T04:02:59.258Z,28.71
2023-04-14T04:03:59.177Z,28.70
2023-04-14T04:04:59.232Z,28.67
2023-04-14T04:05:59.153Z,28.71
2023-04-14T04:06:59.193Z,28.71
2023-04-14T04:07:59.210Z,28.75
2023-04-14T04:08:59.416Z,28.71
2023-04-14T04:09:59.248Z,28.63
2023-04-14T04:10:59.302Z,28.63
2023-04-14T04:11:59.291Z,28.61
2023-04-14T04:12:59.303Z,28.64
2023-04-14T04:13:59.341Z,28.58
2023-04-14T04:14:59.367Z,28.58
2023-04-14T04:15:59.452Z,28.65
2023-04-14T04:16:59.516Z,28.60
2023-04-14T04:17:59.504Z,28.63
2023-04-14T04:18:59.665Z,28.55
2023-04-14T04:19:59.481Z,28.51
2023-04-14T04:20:59.552Z,28.52
2023-04-14T04:21:59.583Z,28.55
2023-04-14T04:22:59.586Z,28.50
2023-04-14T04:23:59.644Z,28.52
2023-04-14T04:24:59.680Z,28.51
2023-04-14T04:25:59.724Z,28.54
2023-04-14T04:26:59.781Z,28.45
2023-04-14T04:27:59.713Z,28.44
2023-04-14T04:28:59.902Z,28.47
2023-04-14T04:29:59.829Z,28.44
2023-04-14T04:30:59.861Z,28.47
2023-04-14T04:32:00.951Z,28.44
2023-04-14T04:32:59.926Z,28.41
2023-04-14T04:33:59.993Z,28.44
2023-04-14T04:34:59.977Z,28.40
2023-04-14T04:35:59.990Z,28.42
2023-04-14T04:37:00.019Z,28.50
2023-04-14T04:38:00.049Z,28.44
2023-04-14T04:39:00.419Z,28.48
2023-04-14T04:40:00.176Z,28.51
2023-04-14T04:41:00.166Z,28.45
2023-04-14T04:42:00.286Z,28.47
2023-04-14T04:43:00.229Z,28.48
2023-04-14T04:44:00.348Z,28.48
2023-04-14T04:45:00.260Z,28.45
2023-04-14T04:46:00.374Z,28.50
2023-04-14T04:47:00.342Z,28.52
2023-04-14T04:48:00.411Z,28.51
2023-04-14T04:49:00.626Z,28.51
2023-04-14T04:50:00.441Z,28.51
2023-04-14T04:51:00.476Z,28.58
2023-04-14T04:52:00.508Z,28.52
2023-04-14T04:53:00.513Z,28.54
2023-04-14T04:54:00.568Z,28.52
2023-04-14T04:55:00.630Z,28.54
2023-04-14T04:56:00.578Z,28.57
2023-04-14T04:57:00.631Z,28.55
2023-04-14T04:58:00.637Z,28.52
2023-04-14T04:59:00.995Z,28.54
2023-04-14T05:00:00.773Z,28.61
2023-04-14T05:01:00.771Z,28.59
2023-04-14T05:02:00.868Z,28.55
2023-04-14T05:03:01.254Z,28.58
2023-04-14T05:04:00.956Z,28.57
2023-04-14T05:05:00.902Z,28.58
2023-04-14T05:06:00.951Z,28.55
2023-04-14T05:07:00.959Z,28.61
2023-04-14T05:08:01.025Z,28.59
2023-04-14T05:09:01.210Z,28.61
2023-04-14T05:10:01.062Z,28.58
2023-04-14T05:11:01.079Z,28.55
2023-04-14T05:12:01.159Z,28.58
2023-04-14T05:13:01.187Z,28.54
2023-04-14T05:14:01.258Z,28.48
2023-04-14T05:15:01.250Z,28.51
2023-04-14T05:16:01.308Z,28.44
2023-04-14T05:17:01.504Z,28.49
2023-04-14T05:18:01.415Z,28.51
2023-04-14T05:19:01.595Z,28.44
2023-04-14T05:20:01.553Z,28.48
2023-04-14T05:21:01.415Z,28.49
2023-04-14T05:22:01.476Z,28.49
2023-04-14T05:23:01.612Z,28.48
2023-04-14T05:24:01.536Z,28.45
2023-04-14T05:25:01.597Z,28.45
2023-04-14T05:26:14.641Z,28.45
2023-04-14T05:28:01.607Z,28.39
2023-04-14T05:29:01.754Z,28.42
2023-04-14T05:30:01.599Z,28.46
2023-04-14T05:31:01.625Z,28.42
2023-04-14T05:32:01.730Z,28.40
2023-04-14T05:33:01.640Z,28.39
2023-04-14T05:34:01.975Z,28.41
2023-04-14T05:35:01.548Z,28.34
2023-04-14T05:36:01.536Z,28.46
2023-04-14T05:37:01.527Z,28.58
2023-04-14T05:38:01.674Z,29.58
2023-04-14T05:39:01.599Z,29.39
2023-04-14T05:40:01.506Z,29.52
2023-04-14T05:41:01.566Z,29.58
2023-04-14T05:42:01.545Z,29.70
2023-04-14T05:43:01.588Z,29.99
2023-04-14T05:44:01.804Z,29.91
2023-04-14T05:45:01.600Z,30.00
2023-04-14T05:46:01.562Z,30.14
2023-04-14T05:47:01.505Z,30.35
2023-04-14T05:48:01.573Z,30.66
2023-04-14T05:49:01.795Z,30.81
2023-04-14T05:50:01.454Z,30.73
2023-04-14T05:51:01.496Z,30.73
2023-04-14T05:52:01.564Z,30.82
2023-04-14T05:53:01.492Z,31.14
2023-04-14T05:54:01.625Z,31.49
2023-04-14T05:55:01.453Z,31.41
2023-04-14T05:56:01.398Z,31.55
2023-04-14T05:57:01.496Z,31.69
2023-04-14T05:58:01.411Z,31.70
2023-04-14T05:59:01.642Z,31.88
2023-04-14T06:00:01.652Z,31.94
2023-04-14T06:01:01.447Z,31.99
2023-04-14T06:02:01.529Z,32.10
2023-04-14T06:03:01.565Z,32.18
2023-04-14T06:04:01.789Z,32.26
2023-04-14T06:05:01.559Z,32.39
2023-04-14T06:06:01.478Z,32.48
2023-04-14T06:07:01.420Z,32.74
2023-04-14T06:08:01.346Z,32.84
2023-04-14T06:09:01.700Z,32.86
2023-04-14T06:10:01.335Z,32.99
2023-04-14T06:11:01.870Z,33.78
2023-04-14T06:12:01.456Z,33.56
2023-04-14T06:13:01.591Z,33.60
2023-04-14T06:14:02.630Z,33.60
2023-04-14T06:15:02.029Z,33.69
2023-04-14T06:16:02.478Z,33.71
2023-04-14T06:17:01.604Z,33.77
2023-04-14T06:18:01.816Z,33.75
2023-04-14T06:19:01.869Z,33.83
2023-04-14T06:20:01.846Z,33.92
2023-04-14T06:21:01.870Z,33.87
2023-04-14T06:22:01.875Z,34.03
2023-04-14T06:23:02.035Z,34.15
2023-04-14T06:24:01.969Z,34.24
2023-04-14T06:25:02.011Z,34.30
2023-04-14T06:26:02.165Z,34.53
2023-04-14T06:27:06.815Z,34.36
2023-04-14T06:28:02.098Z,34.52
2023-04-14T06:29:02.299Z,34.59
2023-04-14T06:30:02.237Z,34.59
2023-04-14T06:31:03.034Z,34.37
2023-04-14T06:32:02.168Z,34.29
2023-04-14T06:33:02.101Z,34.20
2023-04-14T06:34:02.027Z,34.26
2023-04-14T06:35:02.137Z,34.15
2023-04-14T06:36:02.178Z,34.21
2023-04-14T06:37:02.202Z,34.23
2023-04-14T06:38:02.139Z,33.45
2023-04-14T06:39:02.607Z,26.90
2023-04-14T06:40:02.364Z,25.63
2023-04-14T06:41:02.510Z,26.48
2023-04-14T06:42:07.422Z,26.91
2023-04-14T06:43:02.093Z,27.89
2023-04-14T06:44:02.105Z,28.13
2023-04-14T06:45:02.203Z,28.57
2023-04-14T06:46:02.256Z,28.96
2023-04-14T06:47:02.404Z,29.28
2023-04-14T06:48:02.371Z,29.57
2023-04-14T06:49:02.488Z,29.94
2023-04-14T06:50:02.350Z,30.17
2023-04-14T06:51:02.386Z,30.42
2023-04-14T06:52:02.345Z,30.65
2023-04-14T06:53:02.380Z,30.61
2023-04-14T06:54:02.683Z,30.74
2023-04-14T06:55:02.482Z,30.88
2023-04-14T06:56:02.475Z,30.96
2023-04-14T06:57:02.500Z,31.08
2023-04-14T06:58:02.516Z,31.21
2023-04-14T06:59:02.509Z,31.26
2023-04-14T07:00:02.508Z,31.42
2023-04-14T07:01:02.637Z,31.41
2023-04-14T07:02:02.683Z,31.47
2023-04-14T07:03:02.807Z,31.63
2023-04-14T07:04:04.469Z,31.72
2023-04-14T07:05:02.782Z,31.92
2023-04-14T07:06:02.588Z,31.91
2023-04-14T07:07:02.607Z,31.95
2023-04-14T07:08:02.686Z,31.94
2023-04-14T07:09:02.564Z,32.04
2023-04-14T07:10:02.680Z,32.19
2023-04-14T07:11:02.579Z,32.26
2023-04-14T07:12:02.635Z,32.29
2023-04-14T07:13:03.003Z,32.36
2023-04-14T07:14:03.564Z,32.52
2023-04-14T07:15:02.611Z,32.72
2023-04-14T07:16:02.937Z,32.79
2023-04-14T07:17:02.641Z,32.91
2023-04-14T07:18:02.552Z,32.88
2023-04-14T07:19:02.576Z,32.91
2023-04-14T07:20:02.531Z,32.94
2023-04-14T07:21:02.967Z,33.03
2023-04-14T07:22:02.551Z,33.13
2023-04-14T07:23:02.496Z,33.19
2023-04-14T07:24:02.916Z,33.26
2023-04-14T07:25:02.469Z,33.26
2023-04-14T07:26:03.411Z,33.39
2023-04-14T07:27:02.567Z,33.46
2023-04-14T07:28:03.665Z,33.56
2023-04-14T07:29:02.542Z,33.55
2023-04-14T07:30:02.493Z,33.61
2023-04-14T07:31:03.588Z,33.77
2023-04-14T07:32:02.460Z,33.83
2023-04-14T07:33:02.503Z,33.83
2023-04-14T07:34:02.664Z,34.03
2023-04-14T07:35:02.470Z,33.94
2023-04-14T07:36:04.024Z,34.00
2023-04-14T07:37:02.435Z,33.64
2023-04-14T07:38:02.447Z,33.05
2023-04-14T07:39:02.465Z,33.25
2023-04-14T07:40:02.477Z,33.11
2023-04-14T07:41:02.478Z,33.18
2023-04-14T07:42:02.890Z,33.11
2023-04-14T07:43:02.449Z,33.24
2023-04-14T07:44:04.039Z,33.35
2023-04-14T07:45:03.928Z,33.51
2023-04-14T07:46:02.970Z,33.44
2023-04-14T07:47:02.343Z,33.40
2023-04-14T07:48:02.423Z,33.40
2023-04-14T07:49:02.440Z,33.27
2023-04-14T07:50:02.532Z,33.42
2023-04-14T07:51:02.538Z,33.22
2023-04-14T07:52:02.539Z,33.21
2023-04-14T07:53:02.677Z,33.30
2023-04-14T07:54:03.511Z,33.31
2023-04-14T07:55:02.609Z,33.13
2023-04-14T07:56:02.795Z,33.10
2023-04-14T07:57:02.672Z,33.09
2023-04-14T07:58:02.683Z,32.75
2023-04-14T07:59:02.992Z,32.71
2023-04-14T08:00:02.830Z,32.74
2023-04-14T08:01:02.800Z,32.73
2023-04-14T08:02:02.886Z,32.69
2023-04-14T08:03:02.974Z,32.63
2023-04-14T08:04:03.159Z,32.61
2023-04-14T08:05:03.051Z,32.55
2023-04-14T08:06:03.413Z,32.53
2023-04-14T08:07:02.988Z,32.56
2023-04-14T08:08:02.956Z,32.49
2023-04-14T08:09:03.219Z,32.47
2023-04-14T08:10:03.053Z,32.42
2023-04-14T08:11:03.392Z,32.41
2023-04-14T08:12:03.029Z,32.41
2023-04-14T08:13:03.900Z,32.48
2023-04-14T08:14:03.215Z,32.33
2023-04-14T08:15:03.129Z,32.31
2023-04-14T08:16:03.297Z,32.39
2023-04-14T08:17:03.222Z,32.39
2023-04-14T08:18:03.340Z,32.42
2023-04-14T08:19:03.652Z,32.30
2023-04-14T08:20:03.441Z,32.09
2023-04-14T08:21:03.279Z,31.90
2023-04-14T08:22:03.441Z,31.69
2023-04-14T08:23:03.369Z,31.89
2023-04-14T08:24:03.378Z,31.92
2023-04-14T08:25:03.394Z,31.86
2023-04-14T08:26:03.464Z,31.93
2023-04-14T08:27:03.509Z,31.85
2023-04-14T08:28:03.448Z,31.83
2023-04-14T08:30:22.407Z,31.53
2023-04-14T08:31:22.663Z,31.23
2023-04-14T08:32:22.893Z,28.48
2023-04-14T08:33:23.489Z,26.48
2023-04-14T08:34:28.610Z,27.31
2023-04-14T08:35:37.096Z,28.18
2023-04-14T08:36:23.980Z,28.61
2023-04-14T08:37:22.964Z,28.94
2023-04-14T08:38:23.032Z,29.41
2023-04-14T08:39:23.002Z,29.64
2023-04-14T08:40:22.943Z,29.67
2023-04-14T08:41:22.955Z,29.80
2023-04-14T08:42:22.939Z,29.83
2023-04-14T08:43:24.497Z,29.80
2023-04-14T08:44:23.022Z,29.77
2023-04-14T08:45:23.023Z,29.77
2023-04-14T08:46:23.164Z,29.76
2023-04-14T08:47:23.980Z,29.70
2023-04-14T08:48:25.585Z,29.68
2023-04-14T08:49:23.846Z,29.62
2023-04-14T08:50:23.372Z,29.60
2023-04-14T08:51:23.386Z,29.58
2023-04-14T08:52:23.507Z,29.54
2023-04-14T08:53:23.945Z,29.45
2023-04-14T08:54:23.544Z,29.49
2023-04-14T08:55:23.678Z,29.44
2023-04-14T08:56:23.768Z,29.40
2023-04-14T08:57:23.782Z,29.30
2023-04-14T08:58:23.828Z,29.31
2023-04-14T08:59:23.886Z,29.28
2023-04-14T09:00:23.926Z,29.25
2023-04-14T09:01:24.066Z,29.25
2023-04-14T09:02:24.157Z,29.28
2023-04-14T09:03:24.222Z,29.26
2023-04-14T09:04:24.232Z,29.24
2023-04-14T09:05:24.169Z,29.22
2023-04-14T09:06:24.345Z,29.24
2023-04-14T09:07:24.376Z,29.23
2023-04-14T09:08:24.356Z,29.26
2023-04-14T09:09:24.370Z,29.21
2023-04-14T09:10:24.471Z,29.29
2023-04-14T09:11:24.515Z,29.28
2023-04-14T09:12:25.511Z,29.18
2023-04-14T09:13:24.754Z,29.24
2023-04-14T09:14:24.726Z,29.21
2023-04-14T09:15:25.564Z,29.20
2023-04-14T09:16:24.760Z,29.17
2023-04-14T09:17:24.797Z,29.16
2023-04-14T09:18:25.556Z,29.18
2023-04-14T09:19:24.920Z,29.19
2023-04-14T09:20:36.891Z,29.20
2023-04-14T09:21:50.141Z,29.17
2023-04-14T09:22:25.892Z,29.11
2023-04-14T09:23:24.844Z,29.09
2023-04-14T09:24:24.780Z,29.07
2023-04-14T09:25:24.773Z,29.09
2023-04-14T09:26:24.727Z,29.09
2023-04-14T09:27:24.759Z,29.09
2023-04-14T09:28:24.745Z,29.03
2023-04-14T09:29:25.149Z,28.99
2023-04-14T09:30:24.747Z,29.14
2023-04-14T09:31:24.851Z,29.30
2023-04-14T09:32:24.747Z,28.98
2023-04-14T09:33:24.874Z,28.68
2023-04-14T09:34:24.912Z,28.02
2023-04-14T09:35:24.953Z,27.30
2023-04-14T09:36:24.785Z,29.04
2023-04-14T09:37:24.722Z,26.66
2023-04-14T09:38:24.651Z,25.85
2023-04-14T09:39:24.721Z,26.00
2023-04-14T09:40:24.695Z,26.15
2023-04-14T09:41:24.678Z,26.16
2023-04-14T09:42:24.661Z,26.35
2023-04-14T09:43:24.619Z,26.52
2023-04-14T09:44:24.627Z,26.55
2023-04-14T09:45:25.028Z,26.45
2023-04-14T09:46:24.802Z,26.48
2023-04-14T09:47:24.702Z,26.55
2023-04-14T09:48:24.599Z,26.63
2023-04-14T09:49:24.668Z,26.65
2023-04-14T09:50:24.971Z,26.42
2023-04-14T09:51:24.795Z,26.38
2023-04-14T09:52:24.770Z,26.30
2023-04-14T09:53:24.863Z,26.34
2023-04-14T09:54:24.968Z,26.48
2023-04-14T09:55:24.999Z,26.85
2023-04-14T09:56:24.917Z,26.75
2023-04-14T09:57:24.954Z,26.61
2023-04-14T09:58:27.773Z,26.97
2023-04-14T09:59:25.223Z,27.17
2023-04-14T10:00:25.564Z,27.47
2023-04-14T10:01:25.080Z,27.62
2023-04-14T10:02:25.033Z,27.86
2023-04-14T10:03:25.057Z,28.25
2023-04-14T10:04:25.134Z,28.50
2023-04-14T10:05:24.997Z,28.64
2023-04-14T10:06:24.881Z,28.72
2023-04-14T10:07:24.874Z,28.86
2023-04-14T10:08:25.137Z,28.97
2023-04-14T10:09:24.851Z,29.03
2023-04-14T10:10:24.869Z,29.21
2023-04-14T10:11:24.876Z,29.28
2023-04-14T10:12:24.826Z,29.33
2023-04-14T10:13:24.811Z,29.40
2023-04-14T10:14:24.881Z,29.48
2023-04-14T10:15:25.129Z,29.49
2023-04-14T10:16:24.882Z,29.64
2023-04-14T10:17:25.552Z,29.70
2023-04-14T10:18:24.797Z,29.73
2023-04-14T10:19:24.816Z,29.93
2023-04-14T10:20:24.820Z,29.93
2023-04-14T10:21:24.828Z,30.00
2023-04-14T10:22:25.488Z,30.01
2023-04-14T10:23:24.764Z,30.08
2023-04-14T10:24:24.770Z,30.11
2023-04-14T10:25:24.758Z,30.22
2023-04-14T10:26:24.816Z,30.20
2023-04-14T10:27:24.758Z,29.30
2023-04-14T10:28:25.060Z,28.77
2023-04-14T10:29:24.695Z,28.84
2023-04-14T10:30:24.786Z,29.23
2023-04-14T10:31:24.870Z,29.59
2023-04-14T10:32:24.845Z,29.77
2023-04-14T10:33:26.293Z,29.78
2023-04-14T10:34:25.560Z,29.87
2023-04-14T10:35:27.019Z,29.90
2023-04-14T10:36:25.192Z,30.05
2023-04-14T10:37:25.003Z,30.18
2023-04-14T10:38:25.064Z,30.38
2023-04-14T10:39:25.079Z,30.51
2023-04-14T10:40:25.503Z,30.57
2023-04-14T10:41:25.167Z,30.58
2023-04-14T10:42:25.159Z,30.65
2023-04-14T10:43:25.224Z,30.73
2023-04-14T10:44:25.229Z,30.84
2023-04-14T10:45:25.220Z,30.82
2023-04-14T10:46:26.003Z,30.87
2023-04-14T10:47:25.380Z,30.83
2023-04-14T10:48:25.349Z,30.84
2023-04-14T10:49:25.310Z,31.06
2023-04-14T10:50:25.503Z,31.16
2023-04-14T10:51:26.023Z,31.11
2023-04-14T10:52:25.734Z,31.13
2023-04-14T10:53:25.902Z,31.35
2023-04-14T10:54:26.017Z,31.36
2023-04-14T10:55:26.049Z,31.59
2023-04-14T10:56:26.252Z,31.59
2023-04-14T10:57:26.457Z,31.65
2023-04-14T10:58:26.593Z,31.71
2023-04-14T10:59:26.765Z,31.81
2023-04-14T11:00:26.935Z,31.94
2023-04-14T11:01:27.110Z,31.99
2023-04-14T11:02:27.434Z,32.02
2023-04-14T11:03:28.929Z,32.15
2023-04-14T11:04:27.444Z,32.29
2023-04-14T11:05:27.424Z,32.33
2023-04-14T11:06:27.360Z,32.29
2023-04-14T11:07:27.419Z,32.31
2023-04-14T11:08:27.427Z,32.34
2023-04-14T11:09:27.561Z,32.45
2023-04-14T11:10:27.393Z,32.48
2023-04-14T11:11:27.447Z,32.54
2023-04-14T11:12:27.580Z,32.70
2023-04-14T11:13:27.997Z,32.60
2023-04-14T11:14:27.567Z,32.76
2023-04-14T11:15:27.628Z,32.80
2023-04-14T11:16:27.748Z,32.91
2023-04-14T11:17:27.847Z,32.98
2023-04-14T11:18:28.035Z,33.07
2023-04-14T11:19:28.051Z,33.13
2023-04-14T11:20:27.917Z,33.15
2023-04-14T11:21:28.026Z,33.22
2023-04-14T11:22:28.069Z,33.29
2023-04-14T11:23:28.139Z,33.30
2023-04-14T11:24:28.474Z,33.16
2023-04-14T11:25:28.259Z,33.03
2023-04-14T11:26:28.296Z,33.02
2023-04-14T11:27:28.396Z,32.86
2023-04-14T11:28:28.413Z,32.59
2023-04-14T11:29:28.497Z,32.59
2023-04-14T11:30:28.590Z,32.52
2023-04-14T11:31:28.703Z,32.41
2023-04-14T11:32:28.702Z,32.33
2023-04-14T11:33:28.825Z,32.28
2023-04-14T11:34:28.738Z,32.15
2023-04-14T11:35:28.726Z,32.05
2023-04-14T11:36:28.749Z,31.90
2023-04-14T11:37:28.776Z,31.83
2023-04-14T11:38:28.873Z,31.74
2023-04-14T11:39:28.859Z,31.66
2023-04-14T11:40:28.868Z,31.53
2023-04-14T11:41:28.887Z,31.49
2023-04-14T11:42:28.884Z,31.36
2023-04-14T11:43:28.896Z,31.29
2023-04-14T11:44:28.896Z,31.06
2023-04-14T11:45:29.030Z,30.98
2023-04-14T11:46:29.046Z,30.91
2023-04-14T11:47:28.967Z,30.88
2023-04-14T11:48:29.027Z,30.81
2023-04-14T11:49:29.067Z,30.75
2023-04-14T11:50:29.292Z,30.71
2023-04-14T11:51:29.468Z,30.62
2023-04-14T11:52:29.629Z,30.64
2023-04-14T11:53:29.792Z,30.58
2023-04-14T11:54:29.995Z,30.55
2023-04-14T11:55:30.179Z,30.53
2023-04-14T11:56:30.382Z,30.46
2023-04-14T11:57:30.432Z,30.37
2023-04-14T11:58:30.597Z,30.27
2023-04-14T11:59:30.745Z,30.28
2023-04-14T12:00:30.855Z,30.28
2023-04-14T12:01:31.056Z,30.21
2023-04-14T12:02:31.344Z,30.17
2023-04-14T12:03:31.573Z,30.15
2023-04-14T12:04:31.670Z,30.12
2023-04-14T12:05:31.777Z,30.08
2023-04-14T12:06:31.959Z,30.03
2023-04-14T12:07:32.049Z,30.10
2023-04-14T12:08:32.363Z,30.00
2023-04-14T12:09:32.564Z,29.97
2023-04-14T12:10:32.666Z,29.97
2023-04-14T12:11:32.867Z,29.91
2023-04-14T12:12:33.026Z,29.90
2023-04-14T12:13:33.296Z,29.90
2023-04-14T12:14:33.498Z,29.88
2023-04-14T12:15:33.605Z,29.87
2023-04-14T12:16:33.783Z,29.86
2023-04-14T12:17:34.035Z,29.91
2023-04-14T12:18:34.157Z,29.87
2023-04-14T12:19:34.355Z,29.90
2023-04-14T12:20:34.480Z,29.86
2023-04-14T12:21:34.692Z,29.84
2023-04-14T12:22:34.910Z,29.88
2023-04-14T12:23:35.106Z,29.86
2023-04-14T12:24:35.320Z,29.83
2023-04-14T12:25:35.360Z,29.83
2023-04-14T12:26:35.528Z,29.83
2023-04-14T12:27:35.671Z,29.78
2023-04-14T12:28:35.883Z,29.88
2023-04-14T12:29:36.170Z,29.84
2023-04-14T12:30:36.226Z,29.84
2023-04-14T12:31:36.395Z,29.87
2023-04-14T12:32:36.711Z,29.88
2023-04-14T12:33:36.748Z,29.80
2023-04-14T12:34:38.145Z,29.82
2023-04-14T12:35:36.933Z,29.84
2023-04-14T12:36:47.899Z,29.77
2023-04-14T12:37:37.955Z,29.85
2023-04-14T12:38:36.967Z,29.84
2023-04-14T12:39:36.996Z,29.77
2023-04-14T12:40:36.902Z,29.80
2023-04-14T12:41:36.923Z,29.67
2023-04-14T12:42:37.008Z,29.72
2023-04-14T12:43:36.937Z,29.66
2023-04-14T12:44:36.963Z,29.65
2023-04-14T12:45:36.881Z,29.65
2023-04-14T12:46:36.949Z,29.65
2023-04-14T12:47:37.740Z,29.58
2023-04-14T12:48:36.858Z,29.54
2023-04-14T12:49:36.928Z,29.48
2023-04-14T12:50:36.863Z,29.48
2023-04-14T12:51:37.076Z,29.48
2023-04-14T12:52:36.843Z,29.36
2023-04-14T12:53:36.841Z,29.44
2023-04-14T12:54:36.847Z,29.41
2023-04-14T12:55:36.849Z,29.35